GIA824 WIII-WSSS
Flight info
| Callsign | GIA824 |
|---|---|
| Flight time | 1h 18m |
| Altitude | 36000 |
| Route | DOLTA G579 REPOV REPOV2A |
| Aircraft | B738/M-SDE2E3FGHIRWXY/LB1 |
Departure
| Time | 2026-05-04 22:52 |
|---|---|
| Airport | Soekarno-Hatta International Airport (WIII) |
Arrival
| Time | 2026-05-05 00:10 |
|---|---|
| Airport | Singapore Changi Airport (WSSS) |
| Time | Latitude | Longitude | Altitude | Speed | Heading |
|---|---|---|---|---|---|
| 2026-05-04 22:34 | -6.11830 | 106.66310 | 47 ft | 0 kts | 159° |
| 2026-05-04 22:40 | -6.11819 | 106.66305 | 47 ft | 2 kts | 158° |
| 2026-05-04 22:40 | -6.11805 | 106.66300 | 47 ft | 2 kts | 159° |
| 2026-05-04 22:40 | -6.11791 | 106.66295 | 47 ft | 2 kts | 158° |
| 2026-05-04 22:40 | -6.11777 | 106.66290 | 47 ft | 2 kts | 159° |
| 2026-05-04 22:41 | -6.11764 | 106.66284 | 47 ft | 2 kts | 159° |
| 2026-05-04 22:41 | -6.11750 | 106.66279 | 47 ft | 2 kts | 159° |
| 2026-05-04 22:41 | -6.11736 | 106.66274 | 47 ft | 2 kts | 186° |
| 2026-05-04 22:41 | -6.11722 | 106.66280 | 47 ft | 2 kts | 217° |
| 2026-05-04 22:42 | -6.11713 | 106.66289 | 47 ft | 0 kts | 245° |
| 2026-05-04 22:42 | -6.11711 | 106.66296 | 47 ft | 1 kts | 249° |
| 2026-05-04 22:42 | -6.11710 | 106.66296 | 47 ft | 0 kts | 249° |
| 2026-05-04 22:44 | -6.11712 | 106.66293 | 47 ft | 1 kts | 249° |
| 2026-05-04 22:44 | -6.11722 | 106.66267 | 47 ft | 6 kts | 248° |
| 2026-05-04 22:45 | -6.11743 | 106.66215 | 47 ft | 9 kts | 248° |
| 2026-05-04 22:45 | -6.11804 | 106.66039 | 47 ft | 15 kts | 286° |
| 2026-05-04 22:45 | -6.11715 | 106.65987 | 47 ft | 15 kts | 338° |
| 2026-05-04 22:46 | -6.11615 | 106.65945 | 47 ft | 16 kts | 336° |
| 2026-05-04 22:46 | -6.11516 | 106.65883 | 47 ft | 14 kts | 297° |
| 2026-05-04 22:46 | -6.11539 | 106.65779 | 47 ft | 16 kts | 248° |
| 2026-05-04 22:46 | -6.11586 | 106.65665 | 47 ft | 18 kts | 248° |
| 2026-05-04 22:47 | -6.11640 | 106.65539 | 47 ft | 20 kts | 245° |
| 2026-05-04 22:47 | -6.11688 | 106.65406 | 47 ft | 21 kts | 247° |
| 2026-05-04 22:47 | -6.11744 | 106.65263 | 47 ft | 22 kts | 248° |
| 2026-05-04 22:47 | -6.11805 | 106.65112 | 47 ft | 24 kts | 247° |
| 2026-05-04 22:48 | -6.11871 | 106.64951 | 47 ft | 25 kts | 249° |
| 2026-05-04 22:48 | -6.11943 | 106.64777 | 47 ft | 27 kts | 245° |
| 2026-05-04 22:48 | -6.12016 | 106.64594 | 47 ft | 28 kts | 254° |
| 2026-05-04 22:48 | -6.12087 | 106.64409 | 47 ft | 28 kts | 248° |
| 2026-05-04 22:49 | -6.12135 | 106.64287 | 47 ft | 15 kts | 248° |
| 2026-05-04 22:49 | -6.12174 | 106.64188 | 47 ft | 15 kts | 248° |
| 2026-05-04 22:49 | -6.12212 | 106.64092 | 47 ft | 14 kts | 248° |
| 2026-05-04 22:49 | -6.12249 | 106.64000 | 47 ft | 14 kts | 248° |
| 2026-05-04 22:50 | -6.12247 | 106.63911 | 47 ft | 12 kts | 306° |
| 2026-05-04 22:50 | -6.12170 | 106.63886 | 47 ft | 11 kts | 23° |
| 2026-05-04 22:50 | -6.12109 | 106.63903 | 47 ft | 5 kts | 15° |
| 2026-05-04 22:50 | -6.12080 | 106.63935 | 47 ft | 6 kts | 68° |
| 2026-05-04 22:51 | -6.12057 | 106.63995 | 47 ft | 25 kts | 69° |
| 2026-05-04 22:51 | -6.11880 | 106.64442 | 47 ft | 107 kts | 68° |
| 2026-05-04 22:51 | -6.11512 | 106.65349 | 58 ft | 169 kts | 69° |
| 2026-05-04 22:51 | -6.11067 | 106.66481 | 579 ft | 185 kts | 69° |
| 2026-05-04 22:52 | -6.10593 | 106.67632 | 1533 ft | 185 kts | 62° |
| 2026-05-04 22:52 | -6.09684 | 106.68553 | 2192 ft | 194 kts | 32° |
| 2026-05-04 22:52 | -6.08445 | 106.69201 | 2739 ft | 207 kts | 29° |
| 2026-05-04 22:52 | -6.07157 | 106.69930 | 3294 ft | 219 kts | 33° |
| 2026-05-04 22:53 | -6.05802 | 106.70776 | 3778 ft | 240 kts | 34° |
| 2026-05-04 22:53 | -6.04368 | 106.71695 | 4516 ft | 250 kts | 34° |
| 2026-05-04 22:53 | -6.02836 | 106.72676 | 4925 ft | 264 kts | 34° |
| 2026-05-04 22:53 | -6.01257 | 106.73667 | 5002 ft | 268 kts | 32° |
| 2026-05-04 22:54 | -5.99552 | 106.74393 | 4997 ft | 270 kts | 14° |
| 2026-05-04 22:54 | -5.97672 | 106.74342 | 4999 ft | 276 kts | 346° |
| 2026-05-04 22:54 | -5.95960 | 106.73419 | 5000 ft | 282 kts | 321° |
| 2026-05-04 22:54 | -5.94634 | 106.71922 | 5072 ft | 295 kts | 310° |
| 2026-05-04 22:55 | -5.93289 | 106.70409 | 6078 ft | 289 kts | 317° |
| 2026-05-04 22:55 | -5.91842 | 106.69029 | 7028 ft | 288 kts | 319° |
| 2026-05-04 22:55 | -5.90372 | 106.67686 | 7838 ft | 292 kts | 319° |
| 2026-05-04 22:55 | -5.88863 | 106.66291 | 8664 ft | 294 kts | 318° |
| 2026-05-04 22:56 | -5.87385 | 106.64894 | 9449 ft | 298 kts | 317° |
| 2026-05-04 22:56 | -5.85885 | 106.63451 | 10239 ft | 301 kts | 317° |
| 2026-05-04 22:56 | -5.84335 | 106.61951 | 10746 ft | 316 kts | 317° |
| 2026-05-04 22:56 | -5.82722 | 106.60387 | 11211 ft | 331 kts | 317° |
| 2026-05-04 22:57 | -5.81017 | 106.58735 | 11744 ft | 343 kts | 317° |
| 2026-05-04 22:57 | -5.79299 | 106.57069 | 12426 ft | 349 kts | 317° |
| 2026-05-04 22:57 | -5.77535 | 106.55359 | 13182 ft | 353 kts | 317° |
| 2026-05-04 22:57 | -5.75772 | 106.53650 | 13904 ft | 357 kts | 317° |
| 2026-05-04 22:58 | -5.73965 | 106.51899 | 14623 ft | 362 kts | 317° |
| 2026-05-04 22:58 | -5.72147 | 106.50137 | 15342 ft | 367 kts | 317° |
| 2026-05-04 22:58 | -5.70317 | 106.48366 | 16038 ft | 371 kts | 317° |
| 2026-05-04 22:58 | -5.68442 | 106.46549 | 16718 ft | 376 kts | 317° |
| 2026-05-04 22:59 | -5.66538 | 106.44707 | 17379 ft | 380 kts | 317° |
| 2026-05-04 22:59 | -5.64624 | 106.42853 | 18015 ft | 385 kts | 317° |
| 2026-05-04 22:59 | -5.62700 | 106.40991 | 18624 ft | 390 kts | 317° |
| 2026-05-04 22:59 | -5.60727 | 106.39081 | 19253 ft | 394 kts | 317° |
| 2026-05-04 23:00 | -5.58741 | 106.37160 | 19847 ft | 398 kts | 317° |
| 2026-05-04 23:00 | -5.56738 | 106.35223 | 20432 ft | 402 kts | 317° |
| 2026-05-04 23:00 | -5.54727 | 106.33279 | 20961 ft | 407 kts | 318° |
| 2026-05-04 23:00 | -5.52671 | 106.31291 | 21525 ft | 410 kts | 318° |
| 2026-05-04 23:01 | -5.50611 | 106.29299 | 22056 ft | 414 kts | 318° |
| 2026-05-04 23:01 | -5.48521 | 106.27278 | 22577 ft | 418 kts | 318° |
| 2026-05-04 23:01 | -5.46423 | 106.25250 | 22956 ft | 424 kts | 317° |
| 2026-05-04 23:01 | -5.44311 | 106.23207 | 22993 ft | 422 kts | 317° |
| 2026-05-04 23:02 | -5.42176 | 106.21140 | 23057 ft | 427 kts | 317° |
| 2026-05-04 23:02 | -5.40055 | 106.19089 | 23690 ft | 426 kts | 317° |
| 2026-05-04 23:02 | -5.37898 | 106.17002 | 24314 ft | 427 kts | 317° |
| 2026-05-04 23:02 | -5.35768 | 106.14941 | 24822 ft | 430 kts | 317° |
| 2026-05-04 23:03 | -5.33612 | 106.12857 | 25335 ft | 433 kts | 317° |
| 2026-05-04 23:03 | -5.31424 | 106.10741 | 25817 ft | 436 kts | 317° |
| 2026-05-04 23:03 | -5.29245 | 106.08635 | 26297 ft | 439 kts | 317° |
| 2026-05-04 23:03 | -5.27032 | 106.06496 | 26848 ft | 439 kts | 317° |
| 2026-05-04 23:04 | -5.24852 | 106.04389 | 27313 ft | 442 kts | 317° |
| 2026-05-04 23:04 | -5.22627 | 106.02239 | 27772 ft | 444 kts | 317° |
| 2026-05-04 23:04 | -5.20403 | 106.00089 | 28235 ft | 446 kts | 317° |
| 2026-05-04 23:04 | -5.18138 | 105.97901 | 28686 ft | 449 kts | 317° |
| 2026-05-04 23:05 | -5.15899 | 105.95744 | 29103 ft | 452 kts | 317° |
| 2026-05-04 23:05 | -5.13598 | 105.93604 | 29494 ft | 455 kts | 319° |
| 2026-05-04 23:05 | -5.11108 | 105.91621 | 29990 ft | 454 kts | 326° |
| 2026-05-04 23:05 | -5.08472 | 105.89892 | 30702 ft | 449 kts | 329° |
| 2026-05-04 23:06 | -5.05796 | 105.88319 | 31287 ft | 447 kts | 331° |
| 2026-05-04 23:06 | -5.03066 | 105.86799 | 31832 ft | 445 kts | 332° |
| 2026-05-04 23:06 | -5.00352 | 105.85316 | 32393 ft | 443 kts | 332° |
| 2026-05-04 23:06 | -4.97649 | 105.83839 | 32967 ft | 441 kts | 332° |
| 2026-05-04 23:07 | -4.94961 | 105.82362 | 33524 ft | 440 kts | 332° |
| 2026-05-04 23:07 | -4.92293 | 105.80884 | 34072 ft | 438 kts | 331° |
| 2026-05-04 23:07 | -4.89657 | 105.79411 | 34587 ft | 436 kts | 331° |
| 2026-05-04 23:07 | -4.86996 | 105.77917 | 35101 ft | 435 kts | 331° |
| 2026-05-04 23:08 | -4.84353 | 105.76425 | 35538 ft | 435 kts | 331° |
| 2026-05-04 23:08 | -4.81682 | 105.74912 | 35868 ft | 436 kts | 331° |
| 2026-05-04 23:08 | -4.76384 | 105.71905 | 35865 ft | 436 kts | 331° |
| 2026-05-04 23:09 | -4.71118 | 105.68909 | 35865 ft | 434 kts | 331° |
| 2026-05-04 23:09 | -4.65880 | 105.65929 | 35865 ft | 434 kts | 331° |
| 2026-05-04 23:10 | -4.60608 | 105.62930 | 35860 ft | 434 kts | 331° |
| 2026-05-04 23:10 | -4.55325 | 105.59925 | 35855 ft | 434 kts | 331° |
| 2026-05-04 23:11 | -4.50073 | 105.56937 | 35855 ft | 434 kts | 331° |
| 2026-05-04 23:11 | -4.44782 | 105.53928 | 35855 ft | 434 kts | 331° |
| 2026-05-04 23:12 | -4.39523 | 105.50939 | 35856 ft | 434 kts | 331° |
| 2026-05-04 23:12 | -4.34243 | 105.47938 | 35861 ft | 434 kts | 331° |
| 2026-05-04 23:13 | -4.29007 | 105.44961 | 35858 ft | 434 kts | 331° |
| 2026-05-04 23:13 | -4.23718 | 105.41956 | 35870 ft | 435 kts | 331° |
| 2026-05-04 23:14 | -4.18464 | 105.38972 | 35867 ft | 434 kts | 331° |
| 2026-05-04 23:14 | -4.13190 | 105.35975 | 35871 ft | 433 kts | 331° |
| 2026-05-04 23:15 | -4.07929 | 105.32989 | 35872 ft | 433 kts | 331° |
| 2026-05-04 23:15 | -4.02662 | 105.29997 | 35871 ft | 434 kts | 331° |
| 2026-05-04 23:16 | -3.97445 | 105.27032 | 35879 ft | 433 kts | 331° |
| 2026-05-04 23:16 | -3.92184 | 105.24043 | 35878 ft | 434 kts | 331° |
| 2026-05-04 23:17 | -3.86945 | 105.21081 | 35880 ft | 433 kts | 331° |
| 2026-05-04 23:17 | -3.81691 | 105.18125 | 35881 ft | 433 kts | 331° |
| 2026-05-04 23:18 | -3.76432 | 105.15167 | 35873 ft | 433 kts | 332° |
| 2026-05-04 23:18 | -3.71143 | 105.12193 | 35866 ft | 433 kts | 331° |
| 2026-05-04 23:19 | -3.65862 | 105.09221 | 35867 ft | 433 kts | 331° |
| 2026-05-04 23:19 | -3.60598 | 105.06259 | 35870 ft | 433 kts | 331° |
| 2026-05-04 23:20 | -3.55322 | 105.03291 | 35866 ft | 433 kts | 331° |
| 2026-05-04 23:20 | -3.50088 | 105.00346 | 35866 ft | 433 kts | 331° |
| 2026-05-04 23:21 | -3.44825 | 104.97387 | 35865 ft | 433 kts | 331° |
| 2026-05-04 23:21 | -3.39559 | 104.94423 | 35866 ft | 433 kts | 331° |
| 2026-05-04 23:22 | -3.34325 | 104.91480 | 35866 ft | 433 kts | 331° |
| 2026-05-04 23:22 | -3.29040 | 104.88509 | 35864 ft | 433 kts | 331° |
| 2026-05-04 23:23 | -3.23755 | 104.85538 | 35868 ft | 433 kts | 331° |
| 2026-05-04 23:23 | -3.18501 | 104.82583 | 35865 ft | 432 kts | 331° |
| 2026-05-04 23:24 | -3.13261 | 104.79638 | 35865 ft | 433 kts | 331° |
| 2026-05-04 23:24 | -3.08008 | 104.76685 | 35864 ft | 432 kts | 331° |
| 2026-05-04 23:25 | -3.02749 | 104.73727 | 35865 ft | 433 kts | 331° |
| 2026-05-04 23:25 | -2.97507 | 104.70782 | 35862 ft | 432 kts | 331° |
| 2026-05-04 23:26 | -2.92243 | 104.67828 | 35862 ft | 432 kts | 332° |
| 2026-05-04 23:26 | -2.86844 | 104.65237 | 35862 ft | 431 kts | 342° |
| 2026-05-04 23:27 | -2.80992 | 104.63758 | 35865 ft | 431 kts | 350° |
| 2026-05-04 23:27 | -2.75079 | 104.62711 | 35868 ft | 431 kts | 351° |
| 2026-05-04 23:28 | -2.69161 | 104.61699 | 35873 ft | 431 kts | 351° |
| 2026-05-04 23:28 | -2.63209 | 104.60638 | 35877 ft | 432 kts | 350° |
| 2026-05-04 23:29 | -2.57291 | 104.59548 | 35878 ft | 431 kts | 350° |
| 2026-05-04 23:29 | -2.51401 | 104.58444 | 35878 ft | 431 kts | 350° |
| 2026-05-04 23:30 | -2.45451 | 104.57323 | 35877 ft | 431 kts | 350° |
| 2026-05-04 23:30 | -2.39529 | 104.56205 | 35879 ft | 431 kts | 350° |
| 2026-05-04 23:31 | -2.33613 | 104.55088 | 35875 ft | 432 kts | 350° |
| 2026-05-04 23:31 | -2.27710 | 104.53973 | 35876 ft | 433 kts | 350° |
| 2026-05-04 23:32 | -2.21764 | 104.52849 | 35876 ft | 432 kts | 350° |
| 2026-05-04 23:32 | -2.15828 | 104.51727 | 35876 ft | 432 kts | 350° |
| 2026-05-04 23:33 | -2.09918 | 104.50611 | 35874 ft | 432 kts | 350° |
| 2026-05-04 23:33 | -2.03985 | 104.49490 | 35874 ft | 433 kts | 350° |
| 2026-05-04 23:34 | -1.98065 | 104.48373 | 35875 ft | 432 kts | 350° |
| 2026-05-04 23:34 | -1.92149 | 104.47256 | 35875 ft | 432 kts | 350° |
| 2026-05-04 23:35 | -1.86224 | 104.46136 | 35874 ft | 432 kts | 350° |
| 2026-05-04 23:35 | -1.80300 | 104.45016 | 35872 ft | 432 kts | 350° |
| 2026-05-04 23:36 | -1.74343 | 104.43892 | 35868 ft | 431 kts | 350° |
| 2026-05-04 23:36 | -1.68442 | 104.42778 | 35864 ft | 432 kts | 350° |
| 2026-05-04 23:37 | -1.62530 | 104.41662 | 35864 ft | 431 kts | 350° |
| 2026-05-04 23:37 | -1.56580 | 104.40538 | 35864 ft | 432 kts | 350° |
| 2026-05-04 23:38 | -1.50680 | 104.39425 | 35864 ft | 432 kts | 350° |
| 2026-05-04 23:38 | -1.44770 | 104.38309 | 35864 ft | 432 kts | 350° |
| 2026-05-04 23:39 | -1.38864 | 104.37194 | 35864 ft | 431 kts | 350° |
| 2026-05-04 23:39 | -1.32954 | 104.36079 | 35864 ft | 431 kts | 350° |
| 2026-05-04 23:40 | -1.27045 | 104.34964 | 35864 ft | 431 kts | 350° |
| 2026-05-04 23:40 | -1.21112 | 104.33845 | 35863 ft | 431 kts | 350° |
| 2026-05-04 23:41 | -1.15202 | 104.32730 | 35860 ft | 432 kts | 350° |
| 2026-05-04 23:41 | -1.09281 | 104.31613 | 35858 ft | 432 kts | 350° |
| 2026-05-04 23:42 | -1.03367 | 104.30498 | 35855 ft | 431 kts | 350° |
| 2026-05-04 23:42 | -0.97425 | 104.29376 | 35855 ft | 431 kts | 350° |
| 2026-05-04 23:43 | -0.91538 | 104.28264 | 35866 ft | 430 kts | 350° |
| 2026-05-04 23:43 | -0.85661 | 104.27155 | 35869 ft | 430 kts | 350° |
| 2026-05-04 23:44 | -0.79813 | 104.26053 | 35872 ft | 431 kts | 350° |
| 2026-05-04 23:44 | -0.74136 | 104.24982 | 35877 ft | 431 kts | 350° |
| 2026-05-04 23:45 | -0.68295 | 104.23879 | 35643 ft | 430 kts | 350° |
| 2026-05-04 23:45 | -0.65393 | 104.23332 | 35113 ft | 428 kts | 350° |
| 2026-05-04 23:45 | -0.62501 | 104.22784 | 34500 ft | 426 kts | 350° |
| 2026-05-04 23:46 | -0.59573 | 104.22231 | 34061 ft | 420 kts | 350° |
| 2026-05-04 23:46 | -0.56711 | 104.21690 | 33585 ft | 421 kts | 350° |
| 2026-05-04 23:46 | -0.53829 | 104.21137 | 33081 ft | 427 kts | 350° |
| 2026-05-04 23:46 | -0.50878 | 104.20556 | 32554 ft | 425 kts | 349° |
| 2026-05-04 23:47 | -0.48024 | 104.19988 | 32084 ft | 421 kts | 349° |
| 2026-05-04 23:47 | -0.45140 | 104.19410 | 31583 ft | 418 kts | 350° |
| 2026-05-04 23:47 | -0.42288 | 104.18839 | 31079 ft | 416 kts | 350° |
| 2026-05-04 23:47 | -0.39463 | 104.18274 | 30582 ft | 413 kts | 350° |
| 2026-05-04 23:48 | -0.36653 | 104.17713 | 30081 ft | 411 kts | 350° |
| 2026-05-04 23:48 | -0.33844 | 104.17153 | 29577 ft | 408 kts | 350° |
| 2026-05-04 23:48 | -0.31056 | 104.16598 | 29079 ft | 406 kts | 350° |
| 2026-05-04 23:48 | -0.28287 | 104.16047 | 28582 ft | 403 kts | 351° |
| 2026-05-04 23:49 | -0.25538 | 104.15501 | 28094 ft | 401 kts | 351° |
| 2026-05-04 23:49 | -0.22833 | 104.14964 | 27610 ft | 399 kts | 351° |
| 2026-05-04 23:49 | -0.20084 | 104.14418 | 27115 ft | 396 kts | 351° |
| 2026-05-04 23:49 | -0.17381 | 104.13882 | 26627 ft | 394 kts | 351° |
| 2026-05-04 23:50 | -0.14724 | 104.13354 | 26147 ft | 392 kts | 351° |
| 2026-05-04 23:50 | -0.12042 | 104.12822 | 25660 ft | 389 kts | 351° |
| 2026-05-04 23:50 | -0.09394 | 104.12296 | 25182 ft | 387 kts | 351° |
| 2026-05-04 23:50 | -0.06748 | 104.11770 | 24701 ft | 384 kts | 351° |
| 2026-05-04 23:51 | -0.04148 | 104.11254 | 24227 ft | 382 kts | 351° |
| 2026-05-04 23:51 | -0.01526 | 104.10734 | 23754 ft | 379 kts | 351° |
| 2026-05-04 23:51 | 0.01031 | 104.10226 | 23291 ft | 377 kts | 351° |
| 2026-05-04 23:51 | 0.03604 | 104.09714 | 22826 ft | 374 kts | 351° |
| 2026-05-04 23:52 | 0.06149 | 104.09209 | 22361 ft | 372 kts | 352° |
| 2026-05-04 23:52 | 0.08689 | 104.08704 | 21908 ft | 369 kts | 351° |
| 2026-05-04 23:52 | 0.11211 | 104.08203 | 21451 ft | 367 kts | 352° |
| 2026-05-04 23:52 | 0.13745 | 104.07700 | 20992 ft | 365 kts | 352° |
| 2026-05-04 23:53 | 0.16214 | 104.07211 | 20538 ft | 363 kts | 352° |
| 2026-05-04 23:53 | 0.18691 | 104.06720 | 20083 ft | 361 kts | 351° |
| 2026-05-04 23:53 | 0.21157 | 104.06231 | 19628 ft | 358 kts | 351° |
| 2026-05-04 23:53 | 0.23596 | 104.05746 | 19181 ft | 356 kts | 351° |
| 2026-05-04 23:54 | 0.26033 | 104.05263 | 18735 ft | 354 kts | 351° |
| 2026-05-04 23:54 | 0.28437 | 104.04784 | 18292 ft | 351 kts | 351° |
| 2026-05-04 23:54 | 0.30835 | 104.04308 | 17851 ft | 349 kts | 351° |
| 2026-05-04 23:54 | 0.33194 | 104.03840 | 17417 ft | 346 kts | 351° |
| 2026-05-04 23:55 | 0.35547 | 104.03373 | 16981 ft | 344 kts | 351° |
| 2026-05-04 23:55 | 0.37890 | 104.02908 | 16547 ft | 341 kts | 351° |
| 2026-05-04 23:55 | 0.42551 | 104.01985 | 15686 ft | 337 kts | 351° |
| 2026-05-04 23:56 | 0.44838 | 104.01531 | 15269 ft | 334 kts | 351° |
| 2026-05-04 23:56 | 0.47103 | 104.01082 | 14851 ft | 332 kts | 351° |
| 2026-05-04 23:56 | 0.49382 | 104.00629 | 14426 ft | 330 kts | 351° |
| 2026-05-04 23:56 | 0.51637 | 104.00182 | 14007 ft | 328 kts | 351° |
| 2026-05-04 23:57 | 0.53872 | 103.99739 | 13590 ft | 326 kts | 351° |
| 2026-05-04 23:57 | 0.56093 | 103.99299 | 13170 ft | 324 kts | 351° |
| 2026-05-04 23:57 | 0.58289 | 103.98863 | 12763 ft | 322 kts | 351° |
| 2026-05-04 23:57 | 0.60488 | 103.98428 | 12353 ft | 320 kts | 351° |
| 2026-05-04 23:58 | 0.62681 | 103.97993 | 11950 ft | 318 kts | 350° |
| 2026-05-04 23:58 | 0.64851 | 103.97563 | 11548 ft | 316 kts | 350° |
| 2026-05-04 23:58 | 0.67027 | 103.97131 | 11151 ft | 314 kts | 350° |
| 2026-05-04 23:58 | 0.69151 | 103.96710 | 10868 ft | 308 kts | 350° |
| 2026-05-04 23:59 | 0.71211 | 103.96300 | 10765 ft | 295 kts | 350° |
| 2026-05-04 23:59 | 0.73205 | 103.95901 | 10612 ft | 286 kts | 350° |
| 2026-05-04 23:59 | 0.75149 | 103.95495 | 10267 ft | 285 kts | 349° |
| 2026-05-04 23:59 | 0.77075 | 103.95077 | 9937 ft | 283 kts | 349° |
| 2026-05-05 00:00 | 0.78994 | 103.94661 | 9702 ft | 277 kts | 349° |
| 2026-05-05 00:00 | 0.79616 | 103.94526 | 9608 ft | 276 kts | 349° |
| 2026-05-05 00:00 | 0.82730 | 103.93855 | 9088 ft | 272 kts | 348° |
| 2026-05-05 00:00 | 0.84603 | 103.93452 | 8771 ft | 270 kts | 349° |
| 2026-05-05 00:01 | 0.86444 | 103.93058 | 8464 ft | 268 kts | 349° |
| 2026-05-05 00:01 | 0.88250 | 103.92670 | 8167 ft | 266 kts | 349° |
| 2026-05-05 00:01 | 0.90082 | 103.92278 | 7857 ft | 264 kts | 348° |
| 2026-05-05 00:01 | 0.91864 | 103.91896 | 7560 ft | 261 kts | 349° |
| 2026-05-05 00:02 | 0.93646 | 103.91515 | 7235 ft | 258 kts | 348° |
| 2026-05-05 00:02 | 0.95368 | 103.91147 | 6990 ft | 248 kts | 348° |
| 2026-05-05 00:02 | 0.97075 | 103.90782 | 6687 ft | 247 kts | 348° |
| 2026-05-05 00:02 | 0.98754 | 103.90424 | 6407 ft | 245 kts | 348° |
| 2026-05-05 00:03 | 1.00405 | 103.90066 | 6171 ft | 242 kts | 347° |
| 2026-05-05 00:03 | 1.02031 | 103.89660 | 6054 ft | 234 kts | 345° |
| 2026-05-05 00:03 | 1.03629 | 103.89230 | 5843 ft | 244 kts | 345° |
| 2026-05-05 00:03 | 1.05269 | 103.88795 | 5565 ft | 243 kts | 345° |
| 2026-05-05 00:04 | 1.06910 | 103.88369 | 5287 ft | 241 kts | 345° |
| 2026-05-05 00:04 | 1.08553 | 103.87948 | 5010 ft | 240 kts | 345° |
| 2026-05-05 00:04 | 1.10196 | 103.87634 | 4726 ft | 240 kts | 359° |
| 2026-05-05 00:04 | 1.11803 | 103.87925 | 4480 ft | 235 kts | 21° |
| 2026-05-05 00:05 | 1.13271 | 103.88620 | 4202 ft | 228 kts | 26° |
| 2026-05-05 00:05 | 1.14677 | 103.89284 | 3944 ft | 222 kts | 24° |
| 2026-05-05 00:05 | 1.16056 | 103.89867 | 3785 ft | 212 kts | 22° |
| 2026-05-05 00:05 | 1.17395 | 103.90417 | 3591 ft | 206 kts | 22° |
| 2026-05-05 00:06 | 1.18709 | 103.90965 | 3420 ft | 198 kts | 22° |
| 2026-05-05 00:06 | 1.19966 | 103.91494 | 3121 ft | 197 kts | 22° |
| 2026-05-05 00:06 | 1.21229 | 103.92024 | 2879 ft | 192 kts | 22° |
| 2026-05-05 00:06 | 1.22446 | 103.92535 | 2638 ft | 181 kts | 22° |
| 2026-05-05 00:07 | 1.23577 | 103.93008 | 2348 ft | 168 kts | 23° |
| 2026-05-05 00:07 | 1.24598 | 103.93436 | 2139 ft | 153 kts | 23° |
| 2026-05-05 00:07 | 1.25555 | 103.93837 | 1962 ft | 147 kts | 24° |
| 2026-05-05 00:07 | 1.26504 | 103.94236 | 1766 ft | 148 kts | 24° |
| 2026-05-05 00:08 | 1.27443 | 103.94630 | 1578 ft | 147 kts | 23° |
| 2026-05-05 00:08 | 1.28404 | 103.95033 | 1382 ft | 148 kts | 23° |
| 2026-05-05 00:08 | 1.29341 | 103.95425 | 1192 ft | 146 kts | 22° |
| 2026-05-05 00:08 | 1.30284 | 103.95821 | 1001 ft | 146 kts | 22° |
| 2026-05-05 00:09 | 1.31222 | 103.96213 | 803 ft | 145 kts | 22° |
| 2026-05-05 00:09 | 1.32168 | 103.96591 | 633 ft | 145 kts | 22° |
| 2026-05-05 00:09 | 1.33096 | 103.96983 | 420 ft | 144 kts | 23° |
| 2026-05-05 00:09 | 1.34020 | 103.97377 | 224 ft | 142 kts | 22° |
| 2026-05-05 00:10 | 1.34921 | 103.97757 | 62 ft | 140 kts | 22° |
| 2026-05-05 00:10 | 1.35718 | 103.98093 | 28 ft | 97 kts | 23° |
| 2026-05-05 00:10 | 1.36109 | 103.98258 | 28 ft | 45 kts | 23° |
| 2026-05-05 00:10 | 1.36392 | 103.98377 | 28 ft | 43 kts | 22° |
| 2026-05-05 00:11 | 1.36639 | 103.98500 | 28 ft | 23 kts | 46° |